Startpagina
METAR-TAF:

METAR-TAF

Vliegvelden :

Corrientes, Argentinië

breedte: 27-27S, lengte: 058-46W, hoogte: 62 m

Actueel weer

Dit bericht is 36 minuten geleden gemaakt, om 19:00 UTC
Wind 4 kt uit het oostzuidoosten
Temperatuur 24°C
Vochtigheid 83%
Druk 1011 hPa
Zicht 10 km of meer
Geheel bewolkt op 1700 ft

METAR: SARC 181900Z 11004KT 9999 OVC017 24/21 Q1011

Tijdstip: 16:36 (19:36 UTC)


TAF: ontbreekt

Waarnemingen en weersverwachtingen van meer dan 4000 vliegvelden (METAR en TAF).

De beschikbare stations zijn de gele en rode punten op de kaart.

Ga met uw muis naar het station om de naam te zien.

Klik dan om waarnemingen en weersverwachtingen te zien.

kaart wijzigen: klik op de groene knoppen met een zwart kruis om in te zoomen, op de groene knop met een streepje om uit te zoomen of op de groene pijlen voor aangrenzende kaarten.


METAR-TAF: